createdAt,value
2023-04-02T00:01:05.242Z,9.49
2023-04-02T00:03:59.393Z,9.60
2023-04-02T00:06:33.351Z,9.50
2023-04-02T00:09:23.506Z,9.41
2023-04-02T00:11:55.909Z,9.47
2023-04-02T00:14:33.614Z,9.44
2023-04-02T00:17:04.713Z,9.38
2023-04-02T00:19:38.617Z,9.43
2023-04-02T00:22:09.869Z,9.49
2023-04-02T00:24:39.280Z,9.25
2023-04-02T00:27:12.059Z,9.35
2023-04-02T00:29:54.287Z,9.20
2023-04-02T00:32:27.868Z,9.48
2023-04-02T00:34:56.311Z,9.23
2023-04-02T00:37:30.365Z,9.39
2023-04-02T00:40:16.980Z,9.35
2023-04-02T00:42:46.718Z,9.25
2023-04-02T00:45:29.904Z,9.20
2023-04-02T00:48:00.572Z,9.18
2023-04-02T00:50:40.100Z,9.29
2023-04-02T00:53:20.299Z,9.29
2023-04-02T00:55:48.653Z,9.41
2023-04-02T00:58:37.454Z,9.19
2023-04-02T01:01:19.316Z,9.33
2023-04-02T01:03:59.574Z,9.23
2023-04-02T01:06:32.114Z,9.11
2023-04-02T01:09:15.060Z,9.10
2023-04-02T01:11:43.269Z,9.28
2023-04-02T01:14:56.299Z,9.19
2023-04-02T01:17:30.660Z,8.99
2023-04-02T01:20:13.836Z,8.75
2023-04-02T01:23:08.213Z,8.49
2023-04-02T01:25:51.044Z,9.15
2023-04-02T01:28:46.001Z,8.91
2023-04-02T01:31:15.367Z,8.88
2023-04-02T01:33:45.022Z,9.05
2023-04-02T01:36:33.549Z,8.87
2023-04-02T01:39:15.856Z,9.13
2023-04-02T01:41:55.524Z,9.02
2023-04-02T01:44:32.503Z,8.85
2023-04-02T01:47:05.649Z,8.74
2023-04-02T01:49:33.326Z,8.72
2023-04-02T01:52:00.934Z,8.66
2023-04-02T01:54:33.418Z,8.61
2023-04-02T01:57:05.315Z,8.53
2023-04-02T01:59:33.455Z,8.38
2023-04-02T02:02:11.455Z,8.32
2023-04-02T02:04:41.634Z,8.16
2023-04-02T02:07:16.984Z,8.31
2023-04-02T02:09:49.150Z,8.24
2023-04-02T02:12:18.016Z,8.19
2023-04-02T02:14:52.342Z,8.18
2023-04-02T02:17:31.127Z,8.24
2023-04-02T02:20:01.215Z,8.15
2023-04-02T02:22:37.263Z,8.03
2023-04-02T02:25:11.688Z,8.20
2023-04-02T02:27:47.132Z,8.03
2023-04-02T02:30:32.677Z,8.27
2023-04-02T02:33:18.937Z,8.11
2023-04-02T02:36:02.988Z,8.22
2023-04-02T02:38:35.480Z,8.30
2023-04-02T02:41:21.728Z,8.17
2023-04-02T02:44:06.797Z,8.12
2023-04-02T02:46:40.277Z,8.00
2023-04-02T02:49:17.185Z,7.87
2023-04-02T02:51:50.326Z,7.92
2023-04-02T02:54:27.669Z,7.89
2023-04-02T02:57:01.476Z,7.80
2023-04-02T02:59:31.697Z,7.79
2023-04-02T03:02:02.268Z,7.80
2023-04-02T03:04:30.829Z,7.93
2023-04-02T03:07:00.766Z,8.04
2023-04-02T03:09:37.784Z,7.86
2023-04-02T03:12:34.325Z,7.77
2023-04-02T03:15:08.370Z,7.71
2023-04-02T03:17:54.701Z,7.81
2023-04-02T03:20:52.358Z,8.04
2023-04-02T03:23:26.998Z,7.99
2023-04-02T03:26:02.076Z,7.81
2023-04-02T03:28:35.824Z,7.72
2023-04-02T03:31:09.245Z,7.73
2023-04-02T03:33:46.043Z,7.66
2023-04-02T03:36:18.917Z,7.66
2023-04-02T03:38:56.267Z,7.53
2023-04-02T03:41:38.846Z,7.66
2023-04-02T03:44:21.367Z,7.56
2023-04-02T03:46:57.809Z,7.57
2023-04-02T03:49:37.002Z,7.61
2023-04-02T03:52:27.091Z,7.75
2023-04-02T03:54:59.897Z,7.64
2023-04-02T03:57:43.011Z,7.50
2023-04-02T04:00:27.364Z,7.50
2023-04-02T04:03:06.231Z,7.56
2023-04-02T04:05:44.311Z,7.32
2023-04-02T04:08:42.535Z,7.41
2023-04-02T04:11:16.177Z,7.54
2023-04-02T04:13:50.353Z,7.58
2023-04-02T04:16:33.089Z,7.44
2023-04-02T04:19:10.949Z,7.32
2023-04-02T04:21:39.021Z,7.26
2023-04-02T04:24:23.870Z,7.28
2023-04-02T04:27:17.346Z,7.47
2023-04-02T04:29:57.802Z,7.50
2023-04-02T04:32:33.905Z,7.48
2023-04-02T04:35:35.447Z,7.51
2023-04-02T04:38:27.932Z,7.70
2023-04-02T04:41:03.328Z,7.69
2023-04-02T04:43:50.274Z,7.60
2023-04-02T04:46:40.398Z,7.72
2023-04-02T04:50:06.413Z,7.66
2023-04-02T04:52:41.281Z,7.66
2023-04-02T04:55:40.227Z,7.62
2023-04-02T04:58:19.552Z,7.56
2023-04-02T05:00:53.587Z,7.57
2023-04-02T05:03:42.395Z,7.55
2023-04-02T05:06:16.475Z,7.69
2023-04-02T05:08:47.549Z,7.92
2023-04-02T05:11:41.403Z,8.45
2023-04-02T05:14:29.994Z,8.82
2023-04-02T05:17:21.887Z,8.79
2023-04-02T05:20:23.784Z,8.95
2023-04-02T05:23:07.148Z,9.08
2023-04-02T05:25:49.513Z,9.09
2023-04-02T05:28:29.683Z,9.14
2023-04-02T05:31:26.090Z,9.60
2023-04-02T05:33:56.326Z,9.67
2023-04-02T05:36:29.725Z,9.93
2023-04-02T05:39:00.136Z,9.99
2023-04-02T05:41:58.050Z,10.30
2023-04-02T05:44:45.667Z,10.37
2023-04-02T05:47:28.994Z,10.45
2023-04-02T05:50:09.728Z,10.57
2023-04-02T05:52:51.134Z,10.48
2023-04-02T05:55:36.576Z,10.40
2023-04-02T05:58:34.414Z,10.68
2023-04-02T06:01:21.656Z,11.96
2023-04-02T06:04:21.598Z,13.14
2023-04-02T06:07:16.007Z,13.62
2023-04-02T06:10:04.975Z,12.97
2023-04-02T06:12:45.532Z,12.53
2023-04-02T06:15:17.055Z,12.46
2023-04-02T06:18:01.544Z,12.48
2023-04-02T06:20:29.758Z,12.09
2023-04-02T06:23:01.745Z,12.73
2023-04-02T06:25:37.949Z,13.14
2023-04-02T06:28:17.075Z,13.74
2023-04-02T06:30:57.824Z,12.87
2023-04-02T06:33:25.667Z,12.92
2023-04-02T06:35:55.233Z,13.04
2023-04-02T06:38:31.467Z,12.83
2023-04-02T06:41:15.261Z,14.31
2023-04-02T06:44:05.811Z,14.85
2023-04-02T06:47:02.992Z,15.11
2023-04-02T06:49:38.151Z,14.44
2023-04-02T06:52:18.530Z,14.68
2023-04-02T06:54:46.627Z,15.11
2023-04-02T06:57:14.757Z,15.50
2023-04-02T06:59:45.932Z,15.29
2023-04-02T07:02:25.286Z,15.59
2023-04-02T07:05:00.120Z,15.79
2023-04-02T07:07:29.391Z,15.59
2023-04-02T07:10:22.117Z,16.37
2023-04-02T07:12:51.140Z,16.29
2023-04-02T07:15:20.063Z,17.05
2023-04-02T07:17:48.409Z,16.66
2023-04-02T07:20:29.932Z,17.00
2023-04-02T07:23:00.704Z,16.73
2023-04-02T07:25:29.686Z,16.47
2023-04-02T07:28:01.714Z,16.93
2023-04-02T07:30:28.929Z,17.10
2023-04-02T07:32:56.755Z,17.88
2023-04-02T07:35:24.218Z,18.13
2023-04-02T07:37:52.990Z,18.16
2023-04-02T07:40:23.158Z,16.60
2023-04-02T07:42:51.171Z,17.27
2023-04-02T07:45:18.501Z,17.41
2023-04-02T07:47:46.976Z,17.66
2023-04-02T07:50:14.855Z,18.35
2023-04-02T07:52:43.179Z,17.88
2023-04-02T07:55:13.031Z,18.06
2023-04-02T07:57:53.561Z,18.07
2023-04-02T08:00:22.727Z,17.70
2023-04-02T08:02:51.646Z,17.76
2023-04-02T08:05:21.155Z,17.85
2023-04-02T08:07:54.926Z,17.80
2023-04-02T08:10:22.737Z,17.31
2023-04-02T08:12:50.737Z,17.20
2023-04-02T08:15:18.706Z,17.44
2023-04-02T08:17:49.064Z,18.03
2023-04-02T08:20:19.421Z,16.33
2023-04-02T08:22:48.345Z,17.39
2023-04-02T08:25:16.976Z,18.52
2023-04-02T08:27:48.095Z,18.83
2023-04-02T08:30:16.644Z,17.68
2023-04-02T08:32:44.586Z,17.47
2023-04-02T08:35:14.794Z,18.12
2023-04-02T08:37:42.897Z,17.66
2023-04-02T08:40:22.543Z,17.69
2023-04-02T08:42:50.261Z,16.71
2023-04-02T08:45:36.983Z,17.03
2023-04-02T08:48:10.068Z,16.65
2023-04-02T08:50:44.758Z,17.75
2023-04-02T08:53:23.144Z,18.42
2023-04-02T08:56:17.901Z,17.95
2023-04-02T08:58:51.012Z,17.64
2023-04-02T09:01:47.301Z,18.65
2023-04-02T09:04:24.063Z,18.84
2023-04-02T09:06:54.495Z,19.50
2023-04-02T09:09:23.596Z,19.12
2023-04-02T09:12:04.443Z,20.05
2023-04-02T09:14:59.032Z,19.83
2023-04-02T09:17:28.528Z,19.34
2023-04-02T09:20:05.776Z,20.16
2023-04-02T09:22:35.295Z,18.81
2023-04-02T09:25:06.141Z,19.51
2023-04-02T09:27:54.742Z,19.29
2023-04-02T09:30:49.595Z,18.93
2023-04-02T09:33:16.966Z,18.11
2023-04-02T09:35:50.754Z,18.59
2023-04-02T09:38:32.927Z,18.82
2023-04-02T09:41:22.710Z,17.70
2023-04-02T09:43:50.101Z,17.20
2023-04-02T09:46:26.025Z,18.49
2023-04-02T09:48:54.421Z,19.13
2023-04-02T09:51:27.882Z,18.87
2023-04-02T09:54:04.508Z,19.82
2023-04-02T09:56:40.860Z,20.35
2023-04-02T09:59:15.739Z,20.22
2023-04-02T10:01:58.308Z,20.17
2023-04-02T10:04:46.926Z,19.27
2023-04-02T10:07:37.862Z,20.27
2023-04-02T10:10:21.211Z,20.93
2023-04-02T10:13:04.333Z,19.85
2023-04-02T10:15:42.137Z,19.97
2023-04-02T10:18:12.776Z,18.48
2023-04-02T10:20:50.907Z,19.17
2023-04-02T10:23:19.852Z,20.19
2023-04-02T10:26:08.470Z,18.87
2023-04-02T10:28:45.258Z,18.62
2023-04-02T10:31:31.822Z,19.27
2023-04-02T10:34:10.138Z,19.85
2023-04-02T10:36:54.478Z,18.96
2023-04-02T10:39:36.801Z,19.72
2023-04-02T10:42:19.111Z,20.39
2023-04-02T10:45:16.674Z,19.00
2023-04-02T10:47:49.255Z,18.70
2023-04-02T10:50:55.687Z,18.51
2023-04-02T10:53:53.909Z,18.03
2023-04-02T10:56:25.942Z,17.79
2023-04-02T10:59:06.375Z,18.06
2023-04-02T11:01:36.527Z,17.62
2023-04-02T11:04:45.611Z,19.07
2023-04-02T11:07:25.218Z,18.73
2023-04-02T11:09:58.132Z,18.64
2023-04-02T11:12:42.206Z,17.90
2023-04-02T11:15:21.195Z,18.68
2023-04-02T11:17:49.158Z,19.13
2023-04-02T11:20:48.967Z,19.15
2023-04-02T11:23:21.187Z,19.40
2023-04-02T11:26:35.035Z,19.08
2023-04-02T11:29:27.630Z,18.39
2023-04-02T11:32:21.938Z,17.95
2023-04-02T11:34:59.556Z,18.01
2023-04-02T11:37:43.250Z,17.74
2023-04-02T11:40:16.125Z,18.69
2023-04-02T11:42:50.989Z,17.85
2023-04-02T11:45:21.634Z,17.54
2023-04-02T11:48:09.794Z,17.50
2023-04-02T11:50:45.862Z,17.19
2023-04-02T11:53:14.868Z,16.82
2023-04-02T11:55:51.952Z,16.79
2023-04-02T11:58:46.697Z,17.13
2023-04-02T12:01:56.169Z,16.95
2023-04-02T12:05:07.794Z,17.44
2023-04-02T12:07:46.921Z,18.18
2023-04-02T12:10:34.535Z,18.66
2023-04-02T12:13:02.227Z,19.80
2023-04-02T12:15:32.484Z,19.89
2023-04-02T12:18:15.313Z,19.00
2023-04-02T12:20:48.078Z,18.93
2023-04-02T12:23:21.170Z,18.49
2023-04-02T12:25:56.609Z,18.44
2023-04-02T12:28:24.545Z,18.67
2023-04-02T12:31:02.182Z,18.55
2023-04-02T12:33:33.914Z,18.57
2023-04-02T12:36:02.882Z,17.75
2023-04-02T12:38:36.839Z,17.34
2023-04-02T12:41:19.873Z,15.81
2023-04-02T12:43:47.642Z,15.49
2023-04-02T12:46:15.738Z,15.53
2023-04-02T12:48:43.340Z,15.19
2023-04-02T12:51:11.252Z,15.24
2023-04-02T12:53:41.350Z,15.01
2023-04-02T12:56:19.164Z,14.50
2023-04-02T12:58:56.750Z,14.37
2023-04-02T13:01:31.633Z,13.64
2023-04-02T13:04:08.974Z,13.53
2023-04-02T13:06:37.144Z,13.11
2023-04-02T13:09:07.682Z,12.98
2023-04-02T13:11:37.335Z,12.89
2023-04-02T13:14:07.602Z,12.93
2023-04-02T13:16:40.758Z,12.97
2023-04-02T13:19:17.570Z,12.93
2023-04-02T13:21:46.337Z,12.82
2023-04-02T13:24:22.089Z,12.76
2023-04-02T13:26:51.588Z,12.79
2023-04-02T13:29:21.917Z,12.83
2023-04-02T13:31:49.910Z,12.94
2023-04-02T13:34:18.432Z,13.07
2023-04-02T13:36:46.507Z,12.91
2023-04-02T13:39:14.375Z,12.81
2023-04-02T13:41:45.225Z,13.16
2023-04-02T13:44:21.551Z,13.18
2023-04-02T13:46:49.830Z,13.40
2023-04-02T13:49:18.444Z,13.52
2023-04-02T13:52:00.086Z,13.68
2023-04-02T13:54:34.978Z,13.86
2023-04-02T13:57:02.344Z,14.29
2023-04-02T13:59:30.419Z,14.44
2023-04-02T14:02:04.241Z,14.57
2023-04-02T14:04:38.381Z,15.20
2023-04-02T14:07:21.844Z,15.79
2023-04-02T14:10:09.692Z,16.08
2023-04-02T14:13:04.715Z,16.82
2023-04-02T14:16:10.619Z,17.05
2023-04-02T14:18:46.878Z,17.13
2023-04-02T14:21:44.943Z,17.16
2023-04-02T14:24:35.628Z,16.96
2023-04-02T14:27:22.246Z,17.04
2023-04-02T14:30:21.387Z,17.06
2023-04-02T14:33:06.385Z,17.10
2023-04-02T14:35:39.439Z,17.06
2023-04-02T14:38:46.016Z,16.84
2023-04-02T14:41:29.066Z,16.90
2023-04-02T14:44:06.143Z,17.67
2023-04-02T14:46:37.610Z,17.79
2023-04-02T14:49:40.075Z,18.00
2023-04-02T14:52:14.206Z,18.07
2023-04-02T14:54:55.862Z,18.15
2023-04-02T14:57:40.057Z,18.30
2023-04-02T15:00:31.841Z,18.32
2023-04-02T15:03:23.253Z,18.83
2023-04-02T15:06:00.148Z,18.40
2023-04-02T15:08:52.376Z,18.15
2023-04-02T15:11:46.012Z,18.31
2023-04-02T15:14:21.632Z,17.75
2023-04-02T15:16:49.340Z,17.55
2023-04-02T15:19:19.347Z,17.15
2023-04-02T15:22:26.407Z,17.48
2023-04-02T15:25:36.686Z,17.12
2023-04-02T15:28:21.704Z,16.78
2023-04-02T15:30:58.877Z,16.32
2023-04-02T15:33:29.087Z,16.12
2023-04-02T15:36:24.470Z,15.65
2023-04-02T16:29:13.939Z,15.15
2023-04-02T16:31:57.617Z,15.28
2023-04-02T16:34:42.566Z,15.18
2023-04-02T16:37:40.394Z,15.14
2023-04-02T16:44:39.349Z,14.59
2023-04-02T16:47:28.443Z,14.37
2023-04-02T16:50:02.398Z,14.14
2023-04-02T16:52:54.508Z,13.96
2023-04-02T16:55:45.066Z,14.06
2023-04-02T16:58:46.564Z,13.89
2023-04-02T17:01:47.433Z,13.85
2023-04-02T17:04:35.143Z,13.67
2023-04-02T17:07:18.493Z,13.54
2023-04-02T17:10:14.236Z,13.45
2023-04-02T17:12:47.133Z,13.41
2023-04-02T17:15:28.906Z,13.31
2023-04-02T17:18:00.557Z,13.36
2023-04-02T17:20:28.785Z,13.61
2023-04-02T17:23:00.112Z,13.22
2023-04-02T17:25:37.711Z,13.04
2023-04-02T17:28:12.788Z,12.87
2023-04-02T17:30:52.562Z,13.01
2023-04-02T17:33:26.934Z,12.88
2023-04-02T17:36:36.171Z,12.88
2023-04-02T17:39:35.740Z,12.82
2023-04-02T17:42:10.556Z,12.84
2023-04-02T17:45:00.195Z,12.48
2023-04-02T17:47:46.084Z,12.61
2023-04-02T17:50:36.299Z,12.53
2023-04-02T17:53:39.162Z,12.56
2023-04-02T17:56:57.905Z,12.62
2023-04-02T18:00:16.381Z,12.67
2023-04-02T18:03:30.146Z,12.77
2023-04-02T18:06:08.240Z,12.63
2023-04-02T18:09:07.174Z,12.63
2023-04-02T18:11:51.908Z,12.45
2023-04-02T18:14:47.725Z,12.12
2023-04-02T18:17:19.340Z,12.23
2023-04-02T18:20:23.279Z,12.18
2023-04-02T18:23:01.361Z,12.10
2023-04-02T18:25:33.453Z,12.08
2023-04-02T18:28:21.558Z,12.04
2023-04-02T18:31:06.265Z,11.95
2023-04-02T18:33:46.286Z,12.09
2023-04-02T18:36:22.689Z,12.02
2023-04-02T18:39:04.994Z,11.98
2023-04-02T18:41:38.668Z,12.06
2023-04-02T18:44:22.475Z,11.93
2023-04-02T18:46:56.001Z,12.04
2023-04-02T18:49:28.617Z,12.44
2023-04-02T18:52:02.687Z,12.42
2023-04-02T18:54:39.170Z,12.51
2023-04-02T18:57:17.921Z,12.77
2023-04-02T18:59:51.395Z,12.87
2023-04-02T19:02:46.358Z,12.88
2023-04-02T19:05:22.961Z,12.95
2023-04-02T19:07:55.632Z,12.84
2023-04-02T19:10:39.193Z,13.13
2023-04-02T19:13:25.837Z,12.92
2023-04-02T19:16:17.776Z,12.70
2023-04-02T19:19:13.654Z,12.69
2023-04-02T19:21:49.840Z,12.79
2023-04-02T19:24:34.339Z,12.73
2023-04-02T19:27:27.426Z,12.78
2023-04-02T19:30:23.295Z,12.68
2023-04-02T19:33:16.685Z,12.53
2023-04-02T19:35:56.264Z,12.36
2023-04-02T19:38:44.998Z,12.40
2023-04-02T19:41:43.294Z,12.62
2023-04-02T19:44:13.400Z,12.53
2023-04-02T19:46:43.265Z,12.49
2023-04-02T19:49:23.002Z,12.47
2023-04-02T19:51:52.000Z,12.37
2023-04-02T19:54:19.537Z,12.59
2023-04-02T19:56:47.429Z,12.87
2023-04-02T19:59:18.111Z,12.87
2023-04-02T20:01:50.277Z,12.83
2023-04-02T20:04:17.773Z,13.06
2023-04-02T20:06:49.803Z,12.91
2023-04-02T20:09:18.634Z,12.93
2023-04-02T20:11:47.830Z,12.66
2023-04-02T20:14:15.975Z,12.17
2023-04-02T20:16:50.161Z,11.90
2023-04-02T20:19:17.509Z,11.83
2023-04-02T20:21:46.267Z,11.78
2023-04-02T20:24:13.633Z,12.06
2023-04-02T20:26:44.108Z,11.88
2023-04-02T20:29:11.427Z,11.73
2023-04-02T20:31:38.993Z,11.65
2023-04-02T20:34:09.578Z,11.39
2023-04-02T20:36:38.764Z,11.49
2023-04-02T20:39:08.457Z,11.38
2023-04-02T20:41:36.097Z,11.26
2023-04-02T20:44:03.808Z,11.29
2023-04-02T20:46:31.945Z,11.40
2023-04-02T20:48:59.548Z,11.47
2023-04-02T20:51:27.954Z,11.80
2023-04-02T20:53:55.534Z,11.81
2023-04-02T20:56:26.781Z,11.90
2023-04-02T20:58:54.013Z,11.51
2023-04-02T21:01:25.010Z,11.37
2023-04-02T21:03:57.870Z,11.45
2023-04-02T21:06:29.873Z,11.50
2023-04-02T21:08:59.240Z,11.43
2023-04-02T21:11:27.651Z,11.28
2023-04-02T21:13:57.073Z,11.38
2023-04-02T21:16:31.294Z,11.45
2023-04-02T21:19:03.729Z,11.47
2023-04-02T21:21:37.088Z,11.58
2023-04-02T21:24:09.286Z,11.71
2023-04-02T21:26:41.639Z,11.70
2023-04-02T21:29:12.322Z,11.60
2023-04-02T21:31:44.501Z,11.52
2023-04-02T21:34:16.901Z,11.70
2023-04-02T21:36:48.652Z,11.99
2023-04-02T21:39:22.485Z,11.80
2023-04-02T21:41:53.307Z,11.55
2023-04-02T21:44:23.334Z,11.60
2023-04-02T21:46:53.759Z,11.51
2023-04-02T21:49:23.459Z,11.79
2023-04-02T21:51:52.791Z,12.00
2023-04-02T21:54:21.317Z,11.89
2023-04-02T21:56:49.570Z,12.19
2023-04-02T21:59:17.820Z,12.31
2023-04-02T22:01:51.245Z,12.37
2023-04-02T22:04:24.492Z,12.49
2023-04-02T22:06:53.410Z,12.41
2023-04-02T22:09:26.693Z,12.47
2023-04-02T22:11:59.677Z,12.49
2023-04-02T22:14:27.816Z,12.42
2023-04-02T22:16:55.775Z,12.60
2023-04-02T22:19:23.559Z,12.55
2023-04-02T22:21:51.906Z,12.54
2023-04-02T22:24:22.194Z,12.44
2023-04-02T22:26:50.106Z,12.57
2023-04-02T22:29:18.504Z,12.44
2023-04-02T22:31:47.107Z,12.45
2023-04-02T22:34:15.737Z,12.41
2023-04-02T22:36:43.378Z,12.27
2023-04-02T22:39:12.583Z,12.24
2023-04-02T22:41:40.531Z,12.28
2023-04-02T22:44:08.098Z,12.20
2023-04-02T22:46:36.049Z,12.05
2023-04-02T22:49:03.561Z,12.03
2023-04-02T22:51:31.301Z,12.00
2023-04-02T22:53:58.626Z,11.75
2023-04-02T22:56:32.152Z,11.78
2023-04-02T22:59:00.209Z,11.74
2023-04-02T23:01:33.485Z,11.56
2023-04-02T23:04:01.179Z,11.60
2023-04-02T23:06:28.850Z,11.30
2023-04-02T23:08:56.228Z,11.17
2023-04-02T23:11:26.464Z,11.07
2023-04-02T23:13:56.756Z,10.83
2023-04-02T23:16:27.131Z,11.14
2023-04-02T23:18:55.629Z,11.17
2023-04-02T23:21:24.256Z,11.19
2023-04-02T23:23:52.514Z,11.02
2023-04-02T23:26:27.399Z,10.83
2023-04-02T23:28:54.520Z,11.04
2023-04-02T23:31:23.820Z,11.16
2023-04-02T23:33:55.131Z,11.10
2023-04-02T23:36:29.913Z,11.18
2023-04-02T23:39:01.514Z,11.28
2023-04-02T23:41:33.541Z,11.12
2023-04-02T23:44:02.493Z,11.27
2023-04-02T23:46:36.153Z,11.33
2023-04-02T23:49:04.545Z,11.54
2023-04-02T23:51:33.830Z,11.49
2023-04-02T23:54:01.015Z,11.41
2023-04-02T23:56:28.753Z,11.53
2023-04-02T23:58:56.340Z,11.43
